sensor_id;sensor_type;location;lat;lon;timestamp;temperature;humidity
12726;DHT22;6427;49.754;6.106;2022-10-16T00:00:50;14.60;99.90
12726;DHT22;6427;49.754;6.106;2022-10-16T00:03:18;14.60;99.90
12726;DHT22;6427;49.754;6.106;2022-10-16T00:05:46;14.60;99.90
12726;DHT22;6427;49.754;6.106;2022-10-16T00:08:14;14.60;99.90
12726;DHT22;6427;49.754;6.106;2022-10-16T00:10:41;14.80;99.90
12726;DHT22;6427;49.754;6.106;2022-10-16T00:13:09;15.00;99.90
12726;DHT22;6427;49.754;6.106;2022-10-16T00:15:37;15.00;99.90
12726;DHT22;6427;49.754;6.106;2022-10-16T00:18:05;14.90;99.90
12726;DHT22;6427;49.754;6.106;2022-10-16T00:20:36;15.10;99.90
12726;DHT22;6427;49.754;6.106;2022-10-16T00:23:03;15.10;99.90
12726;DHT22;6427;49.754;6.106;2022-10-16T00:25:31;15.00;99.90
12726;DHT22;6427;49.754;6.106;2022-10-16T00:28:00;14.80;99.90
12726;DHT22;6427;49.754;6.106;2022-10-16T00:30:27;14.80;99.90
12726;DHT22;6427;49.754;6.106;2022-10-16T00:32:55;14.70;99.90
12726;DHT22;6427;49.754;6.106;2022-10-16T00:35:23;14.70;99.90
12726;DHT22;6427;49.754;6.106;2022-10-16T00:37:50;14.70;99.90
12726;DHT22;6427;49.754;6.106;2022-10-16T00:40:18;14.70;99.90
12726;DHT22;6427;49.754;6.106;2022-10-16T00:42:46;14.60;99.90
12726;DHT22;6427;49.754;6.106;2022-10-16T00:45:14;14.70;99.90
12726;DHT22;6427;49.754;6.106;2022-10-16T00:47:45;14.70;99.90
12726;DHT22;6427;49.754;6.106;2022-10-16T00:50:30;14.70;99.90
12726;DHT22;6427;49.754;6.106;2022-10-16T00:52:41;14.70;99.90
12726;DHT22;6427;49.754;6.106;2022-10-16T00:55:07;14.70;99.90
12726;DHT22;6427;49.754;6.106;2022-10-16T00:57:36;14.70;99.90
12726;DHT22;6427;49.754;6.106;2022-10-16T01:00:06;14.70;99.90
12726;DHT22;6427;49.754;6.106;2022-10-16T01:02:31;14.70;99.90
12726;DHT22;6427;49.754;6.106;2022-10-16T01:04:58;14.70;99.90
12726;DHT22;6427;49.754;6.106;2022-10-16T01:07:52;14.70;99.90
12726;DHT22;6427;49.754;6.106;2022-10-16T01:12:52;15.00;99.90
12726;DHT22;6427;49.754;6.106;2022-10-16T01:15:29;15.00;99.90
12726;DHT22;6427;49.754;6.106;2022-10-16T01:18:04;14.90;99.90
12726;DHT22;6427;49.754;6.106;2022-10-16T01:20:33;14.80;99.90
12726;DHT22;6427;49.754;6.106;2022-10-16T01:26:20;14.80;99.90
12726;DHT22;6427;49.754;6.106;2022-10-16T01:31:36;14.70;99.90
12726;DHT22;6427;49.754;6.106;2022-10-16T01:34:11;14.70;99.90
12726;DHT22;6427;49.754;6.106;2022-10-16T01:36:45;14.70;99.90
12726;DHT22;6427;49.754;6.106;2022-10-16T01:39:08;14.60;99.90
12726;DHT22;6427;49.754;6.106;2022-10-16T01:41:40;14.70;99.90
12726;DHT22;6427;49.754;6.106;2022-10-16T01:44:04;14.70;99.90
12726;DHT22;6427;49.754;6.106;2022-10-16T01:46:31;14.70;99.90
12726;DHT22;6427;49.754;6.106;2022-10-16T01:48:59;14.70;99.90
12726;DHT22;6427;49.754;6.106;2022-10-16T01:51:26;14.70;99.90
12726;DHT22;6427;49.754;6.106;2022-10-16T01:53:54;14.90;99.90
12726;DHT22;6427;49.754;6.106;2022-10-16T01:56:22;14.90;99.90
12726;DHT22;6427;49.754;6.106;2022-10-16T01:58:54;14.90;99.90
12726;DHT22;6427;49.754;6.106;2022-10-16T02:01:17;14.90;99.90
12726;DHT22;6427;49.754;6.106;2022-10-16T02:03:45;14.80;99.90
12726;DHT22;6427;49.754;6.106;2022-10-16T02:06:13;14.80;99.90
12726;DHT22;6427;49.754;6.106;2022-10-16T02:08:41;14.80;99.90
12726;DHT22;6427;49.754;6.106;2022-10-16T02:11:08;14.70;99.90
12726;DHT22;6427;49.754;6.106;2022-10-16T02:13:41;14.70;99.90
12726;DHT22;6427;49.754;6.106;2022-10-16T02:16:06;14.70;99.90
12726;DHT22;6427;49.754;6.106;2022-10-16T02:18:34;14.70;99.90
12726;DHT22;6427;49.754;6.106;2022-10-16T02:21:19;14.90;99.90
12726;DHT22;6427;49.754;6.106;2022-10-16T02:24:06;14.90;99.90
12726;DHT22;6427;49.754;6.106;2022-10-16T02:29:20;14.70;99.90
12726;DHT22;6427;49.754;6.106;2022-10-16T02:31:47;14.90;99.90
12726;DHT22;6427;49.754;6.106;2022-10-16T02:34:14;14.90;99.90
12726;DHT22;6427;49.754;6.106;2022-10-16T02:36:42;14.80;99.90
12726;DHT22;6427;49.754;6.106;2022-10-16T02:39:09;14.80;99.90
12726;DHT22;6427;49.754;6.106;2022-10-16T02:41:37;14.70;99.90
12726;DHT22;6427;49.754;6.106;2022-10-16T02:44:06;14.70;99.90
12726;DHT22;6427;49.754;6.106;2022-10-16T02:46:33;14.70;99.90
12726;DHT22;6427;49.754;6.106;2022-10-16T02:49:01;14.60;99.90
12726;DHT22;6427;49.754;6.106;2022-10-16T02:51:29;14.60;99.90
12726;DHT22;6427;49.754;6.106;2022-10-16T02:53:56;14.60;99.90
12726;DHT22;6427;49.754;6.106;2022-10-16T02:56:25;14.60;99.90
12726;DHT22;6427;49.754;6.106;2022-10-16T02:58:52;14.60;99.90
12726;DHT22;6427;49.754;6.106;2022-10-16T03:01:21;14.60;99.90
12726;DHT22;6427;49.754;6.106;2022-10-16T03:03:48;14.60;99.90
12726;DHT22;6427;49.754;6.106;2022-10-16T03:06:16;14.60;99.90
12726;DHT22;6427;49.754;6.106;2022-10-16T03:08:44;14.60;99.90
12726;DHT22;6427;49.754;6.106;2022-10-16T03:11:12;14.60;99.90
12726;DHT22;6427;49.754;6.106;2022-10-16T03:13:40;14.60;99.90
12726;DHT22;6427;49.754;6.106;2022-10-16T03:16:08;14.60;99.90
12726;DHT22;6427;49.754;6.106;2022-10-16T03:18:35;14.50;99.90
12726;DHT22;6427;49.754;6.106;2022-10-16T03:21:03;14.50;99.90
12726;DHT22;6427;49.754;6.106;2022-10-16T03:23:31;14.50;99.90
12726;DHT22;6427;49.754;6.106;2022-10-16T03:25:58;14.70;99.90
12726;DHT22;6427;49.754;6.106;2022-10-16T03:28:26;14.80;99.90
12726;DHT22;6427;49.754;6.106;2022-10-16T03:30:54;14.70;99.90
12726;DHT22;6427;49.754;6.106;2022-10-16T03:33:21;14.70;99.90
12726;DHT22;6427;49.754;6.106;2022-10-16T03:35:53;14.70;99.90
12726;DHT22;6427;49.754;6.106;2022-10-16T03:38:20;14.70;99.90
12726;DHT22;6427;49.754;6.106;2022-10-16T03:40:47;14.70;99.90
12726;DHT22;6427;49.754;6.106;2022-10-16T03:43:15;14.70;99.90
12726;DHT22;6427;49.754;6.106;2022-10-16T03:45:43;14.60;99.90
12726;DHT22;6427;49.754;6.106;2022-10-16T03:48:10;14.60;99.90
12726;DHT22;6427;49.754;6.106;2022-10-16T03:50:38;14.60;99.90
12726;DHT22;6427;49.754;6.106;2022-10-16T03:53:05;14.60;99.90
12726;DHT22;6427;49.754;6.106;2022-10-16T03:55:34;14.60;99.90
12726;DHT22;6427;49.754;6.106;2022-10-16T03:58:01;14.60;99.90
12726;DHT22;6427;49.754;6.106;2022-10-16T04:00:29;14.70;99.90
12726;DHT22;6427;49.754;6.106;2022-10-16T04:02:56;14.70;99.90
12726;DHT22;6427;49.754;6.106;2022-10-16T04:05:24;14.90;99.90
12726;DHT22;6427;49.754;6.106;2022-10-16T04:07:52;14.90;99.90
12726;DHT22;6427;49.754;6.106;2022-10-16T04:10:20;14.80;99.90
12726;DHT22;6427;49.754;6.106;2022-10-16T04:12:48;14.80;99.90
12726;DHT22;6427;49.754;6.106;2022-10-16T04:15:15;14.80;99.90
12726;DHT22;6427;49.754;6.106;2022-10-16T04:17:44;14.70;99.90
12726;DHT22;6427;49.754;6.106;2022-10-16T04:20:11;14.70;99.90
12726;DHT22;6427;49.754;6.106;2022-10-16T04:22:39;14.70;99.90
12726;DHT22;6427;49.754;6.106;2022-10-16T04:25:07;14.70;99.90
12726;DHT22;6427;49.754;6.106;2022-10-16T04:27:34;14.60;99.90
12726;DHT22;6427;49.754;6.106;2022-10-16T04:30:03;14.60;99.90
12726;DHT22;6427;49.754;6.106;2022-10-16T04:32:30;14.60;99.90
12726;DHT22;6427;49.754;6.106;2022-10-16T04:34:58;14.50;99.90
12726;DHT22;6427;49.754;6.106;2022-10-16T04:37:26;14.50;99.90
12726;DHT22;6427;49.754;6.106;2022-10-16T04:39:54;14.50;99.90
12726;DHT22;6427;49.754;6.106;2022-10-16T04:42:21;14.50;99.90
12726;DHT22;6427;49.754;6.106;2022-10-16T04:44:49;14.50;99.90
12726;DHT22;6427;49.754;6.106;2022-10-16T04:47:17;14.50;99.90
12726;DHT22;6427;49.754;6.106;2022-10-16T04:49:45;14.50;99.90
12726;DHT22;6427;49.754;6.106;2022-10-16T04:52:13;14.50;99.90
12726;DHT22;6427;49.754;6.106;2022-10-16T04:54:41;14.50;99.90
12726;DHT22;6427;49.754;6.106;2022-10-16T04:57:08;14.50;99.90
12726;DHT22;6427;49.754;6.106;2022-10-16T04:59:36;14.40;99.90
12726;DHT22;6427;49.754;6.106;2022-10-16T05:02:04;14.40;99.90
12726;DHT22;6427;49.754;6.106;2022-10-16T05:04:31;14.40;99.90
12726;DHT22;6427;49.754;6.106;2022-10-16T05:06:59;14.40;99.90
12726;DHT22;6427;49.754;6.106;2022-10-16T05:09:27;14.40;99.90
12726;DHT22;6427;49.754;6.106;2022-10-16T05:11:55;14.50;99.90
12726;DHT22;6427;49.754;6.106;2022-10-16T05:14:22;14.40;99.90
12726;DHT22;6427;49.754;6.106;2022-10-16T05:16:50;14.50;99.90
12726;DHT22;6427;49.754;6.106;2022-10-16T05:19:17;14.50;99.90
12726;DHT22;6427;49.754;6.106;2022-10-16T05:21:45;14.50;99.90
12726;DHT22;6427;49.754;6.106;2022-10-16T05:24:13;14.40;99.90
12726;DHT22;6427;49.754;6.106;2022-10-16T05:26:40;14.40;99.90
12726;DHT22;6427;49.754;6.106;2022-10-16T05:29:08;14.40;99.90
12726;DHT22;6427;49.754;6.106;2022-10-16T05:31:35;14.50;99.90
12726;DHT22;6427;49.754;6.106;2022-10-16T05:34:04;14.40;99.90
12726;DHT22;6427;49.754;6.106;2022-10-16T05:36:31;14.40;99.90
12726;DHT22;6427;49.754;6.106;2022-10-16T05:38:59;14.40;99.90
12726;DHT22;6427;49.754;6.106;2022-10-16T05:41:27;14.40;99.90
12726;DHT22;6427;49.754;6.106;2022-10-16T05:43:55;14.40;99.90
12726;DHT22;6427;49.754;6.106;2022-10-16T05:46:23;14.40;99.90
12726;DHT22;6427;49.754;6.106;2022-10-16T05:48:53;14.40;99.90
12726;DHT22;6427;49.754;6.106;2022-10-16T05:51:20;14.40;99.90
12726;DHT22;6427;49.754;6.106;2022-10-16T05:53:48;14.30;99.90
12726;DHT22;6427;49.754;6.106;2022-10-16T05:56:16;14.30;99.90
12726;DHT22;6427;49.754;6.106;2022-10-16T05:58:43;14.60;99.90
12726;DHT22;6427;49.754;6.106;2022-10-16T06:01:15;14.60;99.90
12726;DHT22;6427;49.754;6.106;2022-10-16T06:03:41;14.60;99.90
12726;DHT22;6427;49.754;6.106;2022-10-16T06:06:22;14.50;99.90
12726;DHT22;6427;49.754;6.106;2022-10-16T06:08:49;14.60;99.90
12726;DHT22;6427;49.754;6.106;2022-10-16T06:11:18;14.50;99.90
12726;DHT22;6427;49.754;6.106;2022-10-16T06:13:45;14.50;99.90
12726;DHT22;6427;49.754;6.106;2022-10-16T06:16:12;14.60;99.90
12726;DHT22;6427;49.754;6.106;2022-10-16T06:18:40;14.50;99.90
12726;DHT22;6427;49.754;6.106;2022-10-16T06:21:12;14.60;99.90
12726;DHT22;6427;49.754;6.106;2022-10-16T06:23:39;14.60;99.90
12726;DHT22;6427;49.754;6.106;2022-10-16T06:26:10;14.60;99.90
12726;DHT22;6427;49.754;6.106;2022-10-16T06:28:38;14.60;99.90
12726;DHT22;6427;49.754;6.106;2022-10-16T06:31:06;14.60;99.90
12726;DHT22;6427;49.754;6.106;2022-10-16T06:33:33;14.60;99.90
12726;DHT22;6427;49.754;6.106;2022-10-16T06:36:05;14.80;99.90
12726;DHT22;6427;49.754;6.106;2022-10-16T06:38:29;14.80;99.90
12726;DHT22;6427;49.754;6.106;2022-10-16T06:40:57;14.80;99.90
12726;DHT22;6427;49.754;6.106;2022-10-16T06:43:25;14.80;99.90
12726;DHT22;6427;49.754;6.106;2022-10-16T06:45:56;14.70;99.90
12726;DHT22;6427;49.754;6.106;2022-10-16T06:48:23;14.70;99.90
12726;DHT22;6427;49.754;6.106;2022-10-16T06:51:00;14.70;99.90
12726;DHT22;6427;49.754;6.106;2022-10-16T06:53:28;14.70;99.90
12726;DHT22;6427;49.754;6.106;2022-10-16T06:55:55;14.70;99.90
12726;DHT22;6427;49.754;6.106;2022-10-16T06:58:22;14.90;99.90
12726;DHT22;6427;49.754;6.106;2022-10-16T07:00:54;15.00;99.90
12726;DHT22;6427;49.754;6.106;2022-10-16T07:03:18;14.90;99.90
12726;DHT22;6427;49.754;6.106;2022-10-16T07:05:46;14.90;99.90
12726;DHT22;6427;49.754;6.106;2022-10-16T07:08:13;14.90;99.90
12726;DHT22;6427;49.754;6.106;2022-10-16T07:10:41;14.90;99.90
12726;DHT22;6427;49.754;6.106;2022-10-16T07:13:08;14.90;99.90
12726;DHT22;6427;49.754;6.106;2022-10-16T07:15:36;14.90;99.90
12726;DHT22;6427;49.754;6.106;2022-10-16T07:18:04;14.90;99.90
12726;DHT22;6427;49.754;6.106;2022-10-16T07:20:32;14.90;99.90
12726;DHT22;6427;49.754;6.106;2022-10-16T07:22:59;14.90;99.90
12726;DHT22;6427;49.754;6.106;2022-10-16T07:25:27;15.00;99.90
12726;DHT22;6427;49.754;6.106;2022-10-16T07:27:55;15.20;99.90
12726;DHT22;6427;49.754;6.106;2022-10-16T07:30:22;15.20;99.90
12726;DHT22;6427;49.754;6.106;2022-10-16T07:32:50;15.20;99.90
12726;DHT22;6427;49.754;6.106;2022-10-16T07:35:18;15.20;99.90
12726;DHT22;6427;49.754;6.106;2022-10-16T07:37:46;15.20;99.90
12726;DHT22;6427;49.754;6.106;2022-10-16T07:40:13;15.20;99.90
12726;DHT22;6427;49.754;6.106;2022-10-16T07:42:41;15.20;99.90
12726;DHT22;6427;49.754;6.106;2022-10-16T07:45:09;15.20;99.90
12726;DHT22;6427;49.754;6.106;2022-10-16T07:47:36;15.20;99.90
12726;DHT22;6427;49.754;6.106;2022-10-16T07:50:04;15.30;99.90
12726;DHT22;6427;49.754;6.106;2022-10-16T07:52:32;15.30;99.90
12726;DHT22;6427;49.754;6.106;2022-10-16T07:55:00;15.30;99.90
12726;DHT22;6427;49.754;6.106;2022-10-16T07:57:27;15.30;99.90
12726;DHT22;6427;49.754;6.106;2022-10-16T07:59:55;15.30;99.90
12726;DHT22;6427;49.754;6.106;2022-10-16T08:02:23;15.40;99.90
12726;DHT22;6427;49.754;6.106;2022-10-16T08:04:50;15.40;99.90
12726;DHT22;6427;49.754;6.106;2022-10-16T08:07:18;15.40;99.90
12726;DHT22;6427;49.754;6.106;2022-10-16T08:09:48;15.40;99.90
12726;DHT22;6427;49.754;6.106;2022-10-16T08:12:14;15.50;99.90
12726;DHT22;6427;49.754;6.106;2022-10-16T08:14:41;15.50;99.90
12726;DHT22;6427;49.754;6.106;2022-10-16T08:17:09;15.50;99.90
12726;DHT22;6427;49.754;6.106;2022-10-16T08:19:36;15.80;99.90
12726;DHT22;6427;49.754;6.106;2022-10-16T08:22:04;15.80;99.90
12726;DHT22;6427;49.754;6.106;2022-10-16T08:24:31;15.80;99.90
12726;DHT22;6427;49.754;6.106;2022-10-16T08:27:00;15.80;99.90
12726;DHT22;6427;49.754;6.106;2022-10-16T08:29:27;15.80;99.90
12726;DHT22;6427;49.754;6.106;2022-10-16T08:31:55;15.80;99.90
12726;DHT22;6427;49.754;6.106;2022-10-16T08:34:23;15.90;99.90
12726;DHT22;6427;49.754;6.106;2022-10-16T08:36:53;15.80;99.90
12726;DHT22;6427;49.754;6.106;2022-10-16T08:39:18;15.90;99.90
12726;DHT22;6427;49.754;6.106;2022-10-16T08:44:30;16.00;99.90
12726;DHT22;6427;49.754;6.106;2022-10-16T08:49:55;16.00;99.90
12726;DHT22;6427;49.754;6.106;2022-10-16T08:52:21;16.00;99.90
12726;DHT22;6427;49.754;6.106;2022-10-16T08:54:50;16.10;99.90
12726;DHT22;6427;49.754;6.106;2022-10-16T08:57:20;16.10;99.90
12726;DHT22;6427;49.754;6.106;2022-10-16T08:59:47;16.20;99.90
12726;DHT22;6427;49.754;6.106;2022-10-16T09:18:40;16.50;99.90
12726;DHT22;6427;49.754;6.106;2022-10-16T09:21:09;16.60;99.90
12726;DHT22;6427;49.754;6.106;2022-10-16T09:23:34;17.00;99.90
12726;DHT22;6427;49.754;6.106;2022-10-16T09:26:01;16.90;99.90
12726;DHT22;6427;49.754;6.106;2022-10-16T09:28:29;17.00;99.90
12726;DHT22;6427;49.754;6.106;2022-10-16T09:30:56;17.00;99.90
12726;DHT22;6427;49.754;6.106;2022-10-16T09:33:25;17.00;99.90
12726;DHT22;6427;49.754;6.106;2022-10-16T09:35:53;16.90;99.90
12726;DHT22;6427;49.754;6.106;2022-10-16T09:38:30;16.90;99.90
12726;DHT22;6427;49.754;6.106;2022-10-16T09:41:03;16.90;99.90
12726;DHT22;6427;49.754;6.106;2022-10-16T09:43:28;16.80;99.90
12726;DHT22;6427;49.754;6.106;2022-10-16T09:46:06;16.80;99.90
12726;DHT22;6427;49.754;6.106;2022-10-16T09:48:37;16.80;99.90
12726;DHT22;6427;49.754;6.106;2022-10-16T09:51:06;16.90;99.90
12726;DHT22;6427;49.754;6.106;2022-10-16T09:53:39;16.90;99.90
12726;DHT22;6427;49.754;6.106;2022-10-16T09:56:06;17.00;99.90
12726;DHT22;6427;49.754;6.106;2022-10-16T09:58:34;17.00;99.90
12726;DHT22;6427;49.754;6.106;2022-10-16T10:01:02;17.10;99.90
12726;DHT22;6427;49.754;6.106;2022-10-16T10:06:00;17.30;99.90
12726;DHT22;6427;49.754;6.106;2022-10-16T10:08:27;17.20;99.90
12726;DHT22;6427;49.754;6.106;2022-10-16T10:10:54;17.30;99.90
12726;DHT22;6427;49.754;6.106;2022-10-16T10:13:24;17.40;99.90
12726;DHT22;6427;49.754;6.106;2022-10-16T10:15:50;17.40;99.90
12726;DHT22;6427;49.754;6.106;2022-10-16T10:18:18;17.50;99.90
12726;DHT22;6427;49.754;6.106;2022-10-16T10:20:45;17.60;99.90
12726;DHT22;6427;49.754;6.106;2022-10-16T10:23:22;17.90;99.90
12726;DHT22;6427;49.754;6.106;2022-10-16T10:36:35;18.00;99.90
12726;DHT22;6427;49.754;6.106;2022-10-16T10:39:19;18.00;99.90
12726;DHT22;6427;49.754;6.106;2022-10-16T10:44:47;18.00;99.90
12726;DHT22;6427;49.754;6.106;2022-10-16T10:47:17;18.00;99.90
12726;DHT22;6427;49.754;6.106;2022-10-16T10:55:03;18.20;99.90
12726;DHT22;6427;49.754;6.106;2022-10-16T10:57:31;18.30;99.90
12726;DHT22;6427;49.754;6.106;2022-10-16T11:05:40;18.80;99.90
12726;DHT22;6427;49.754;6.106;2022-10-16T11:08:14;18.80;99.90
12726;DHT22;6427;49.754;6.106;2022-10-16T11:10:53;18.80;99.90
12726;DHT22;6427;49.754;6.106;2022-10-16T11:13:45;18.60;99.90
12726;DHT22;6427;49.754;6.106;2022-10-16T11:16:04;18.60;99.90
12726;DHT22;6427;49.754;6.106;2022-10-16T11:18:32;18.60;99.90
12726;DHT22;6427;49.754;6.106;2022-10-16T11:21:06;18.50;99.90
12726;DHT22;6427;49.754;6.106;2022-10-16T11:23:55;18.50;99.90
12726;DHT22;6427;49.754;6.106;2022-10-16T11:26:25;18.50;99.90
12726;DHT22;6427;49.754;6.106;2022-10-16T11:28:53;18.70;99.90
12726;DHT22;6427;49.754;6.106;2022-10-16T11:31:36;18.70;99.90
12726;DHT22;6427;49.754;6.106;2022-10-16T11:34:25;18.60;99.90
12726;DHT22;6427;49.754;6.106;2022-10-16T11:36:58;18.60;99.90
12726;DHT22;6427;49.754;6.106;2022-10-16T11:39:28;18.50;99.90
12726;DHT22;6427;49.754;6.106;2022-10-16T11:42:03;18.50;99.90
12726;DHT22;6427;49.754;6.106;2022-10-16T11:44:38;18.50;99.90
12726;DHT22;6427;49.754;6.106;2022-10-16T11:49:59;18.60;99.90
12726;DHT22;6427;49.754;6.106;2022-10-16T11:55:15;18.60;99.90
12726;DHT22;6427;49.754;6.106;2022-10-16T11:57:52;18.60;99.90
12726;DHT22;6427;49.754;6.106;2022-10-16T12:08:15;18.70;99.90
12726;DHT22;6427;49.754;6.106;2022-10-16T12:10:44;18.80;99.90
12726;DHT22;6427;49.754;6.106;2022-10-16T12:13:34;18.80;99.90
12726;DHT22;6427;49.754;6.106;2022-10-16T12:16:04;18.90;99.90
12726;DHT22;6427;49.754;6.106;2022-10-16T12:18:32;18.90;99.90
12726;DHT22;6427;49.754;6.106;2022-10-16T12:20:59;18.90;99.90
12726;DHT22;6427;49.754;6.106;2022-10-16T12:23:27;18.90;99.90
12726;DHT22;6427;49.754;6.106;2022-10-16T12:25:58;18.90;99.90
12726;DHT22;6427;49.754;6.106;2022-10-16T12:28:31;18.90;99.90
12726;DHT22;6427;49.754;6.106;2022-10-16T12:31:02;18.90;99.90
12726;DHT22;6427;49.754;6.106;2022-10-16T12:33:27;18.90;99.90
12726;DHT22;6427;49.754;6.106;2022-10-16T12:35:54;18.90;99.90
12726;DHT22;6427;49.754;6.106;2022-10-16T12:38:24;18.90;99.90
12726;DHT22;6427;49.754;6.106;2022-10-16T12:46:03;18.90;99.90
12726;DHT22;6427;49.754;6.106;2022-10-16T12:48:30;18.90;99.90
12726;DHT22;6427;49.754;6.106;2022-10-16T12:50:57;18.90;99.90
12726;DHT22;6427;49.754;6.106;2022-10-16T12:53:25;19.00;99.90
12726;DHT22;6427;49.754;6.106;2022-10-16T13:01:29;19.00;99.90
12726;DHT22;6427;49.754;6.106;2022-10-16T13:10:10;19.30;99.90
12726;DHT22;6427;49.754;6.106;2022-10-16T13:12:49;19.20;99.90
12726;DHT22;6427;49.754;6.106;2022-10-16T13:15:31;19.40;99.90
12726;DHT22;6427;49.754;6.106;2022-10-16T13:18:39;19.30;99.90
12726;DHT22;6427;49.754;6.106;2022-10-16T13:23:40;19.50;99.90
12726;DHT22;6427;49.754;6.106;2022-10-16T13:26:20;19.40;99.90
12726;DHT22;6427;49.754;6.106;2022-10-16T13:28:44;19.40;99.90
12726;DHT22;6427;49.754;6.106;2022-10-16T13:31:17;19.30;99.90
12726;DHT22;6427;49.754;6.106;2022-10-16T13:33:43;19.30;99.90
12726;DHT22;6427;49.754;6.106;2022-10-16T13:36:23;19.20;99.90
12726;DHT22;6427;49.754;6.106;2022-10-16T13:38:48;19.10;99.90
12726;DHT22;6427;49.754;6.106;2022-10-16T13:41:16;19.10;99.90
12726;DHT22;6427;49.754;6.106;2022-10-16T13:43:47;19.00;99.90
12726;DHT22;6427;49.754;6.106;2022-10-16T13:46:21;19.00;99.90
12726;DHT22;6427;49.754;6.106;2022-10-16T13:49:04;19.00;99.90
12726;DHT22;6427;49.754;6.106;2022-10-16T13:51:31;19.00;99.90
12726;DHT22;6427;49.754;6.106;2022-10-16T13:53:59;19.00;99.90
12726;DHT22;6427;49.754;6.106;2022-10-16T13:56:30;18.90;99.90
12726;DHT22;6427;49.754;6.106;2022-10-16T13:59:04;18.90;99.90
12726;DHT22;6427;49.754;6.106;2022-10-16T14:01:34;18.90;99.90
12726;DHT22;6427;49.754;6.106;2022-10-16T14:04:02;18.90;99.90
12726;DHT22;6427;49.754;6.106;2022-10-16T14:06:30;18.90;99.90
12726;DHT22;6427;49.754;6.106;2022-10-16T14:09:14;18.90;99.90
12726;DHT22;6427;49.754;6.106;2022-10-16T14:11:41;19.00;99.90
12726;DHT22;6427;49.754;6.106;2022-10-16T14:14:05;19.00;99.90
12726;DHT22;6427;49.754;6.106;2022-10-16T14:16:32;19.00;99.90
12726;DHT22;6427;49.754;6.106;2022-10-16T14:19:04;19.00;99.90
12726;DHT22;6427;49.754;6.106;2022-10-16T14:21:28;19.00;99.90
12726;DHT22;6427;49.754;6.106;2022-10-16T14:23:56;19.00;99.90
12726;DHT22;6427;49.754;6.106;2022-10-16T14:26:28;19.00;99.90
12726;DHT22;6427;49.754;6.106;2022-10-16T14:29:02;18.90;99.90
12726;DHT22;6427;49.754;6.106;2022-10-16T14:31:32;19.00;99.90
12726;DHT22;6427;49.754;6.106;2022-10-16T14:33:59;18.90;99.90
12726;DHT22;6427;49.754;6.106;2022-10-16T14:36:28;19.00;99.90
12726;DHT22;6427;49.754;6.106;2022-10-16T14:39:03;19.00;99.90
12726;DHT22;6427;49.754;6.106;2022-10-16T14:41:30;19.00;99.90
12726;DHT22;6427;49.754;6.106;2022-10-16T14:44:00;19.00;99.90
12726;DHT22;6427;49.754;6.106;2022-10-16T14:46:35;19.00;99.90
12726;DHT22;6427;49.754;6.106;2022-10-16T14:51:36;19.00;99.90
12726;DHT22;6427;49.754;6.106;2022-10-16T14:54:04;19.00;99.90
12726;DHT22;6427;49.754;6.106;2022-10-16T14:56:41;18.90;99.90
12726;DHT22;6427;49.754;6.106;2022-10-16T14:58:59;18.90;99.90
12726;DHT22;6427;49.754;6.106;2022-10-16T15:01:27;18.90;99.90
12726;DHT22;6427;49.754;6.106;2022-10-16T15:03:54;18.90;99.90
12726;DHT22;6427;49.754;6.106;2022-10-16T15:06:22;19.20;99.90
12726;DHT22;6427;49.754;6.106;2022-10-16T15:08:50;19.40;99.90
12726;DHT22;6427;49.754;6.106;2022-10-16T15:11:18;19.40;99.90
12726;DHT22;6427;49.754;6.106;2022-10-16T15:13:45;19.40;99.90
12726;DHT22;6427;49.754;6.106;2022-10-16T15:16:14;19.40;99.90
12726;DHT22;6427;49.754;6.106;2022-10-16T15:18:40;19.40;99.90
12726;DHT22;6427;49.754;6.106;2022-10-16T15:21:09;19.40;99.90
12726;DHT22;6427;49.754;6.106;2022-10-16T15:23:36;19.30;99.90
12726;DHT22;6427;49.754;6.106;2022-10-16T15:26:04;19.30;99.90
12726;DHT22;6427;49.754;6.106;2022-10-16T15:28:31;19.30;99.90
12726;DHT22;6427;49.754;6.106;2022-10-16T15:31:00;19.20;99.90
12726;DHT22;6427;49.754;6.106;2022-10-16T15:33:27;19.20;99.90
12726;DHT22;6427;49.754;6.106;2022-10-16T15:35:55;19.20;99.90
12726;DHT22;6427;49.754;6.106;2022-10-16T15:38:23;19.30;99.90
12726;DHT22;6427;49.754;6.106;2022-10-16T15:40:51;19.30;99.90
12726;DHT22;6427;49.754;6.106;2022-10-16T15:43:19;19.20;99.90
12726;DHT22;6427;49.754;6.106;2022-10-16T15:46:03;19.20;99.90
12726;DHT22;6427;49.754;6.106;2022-10-16T15:48:29;19.10;99.90
12726;DHT22;6427;49.754;6.106;2022-10-16T15:50:57;19.10;99.90
12726;DHT22;6427;49.754;6.106;2022-10-16T15:53:25;19.00;99.90
12726;DHT22;6427;49.754;6.106;2022-10-16T15:55:53;19.00;99.90
12726;DHT22;6427;49.754;6.106;2022-10-16T15:58:20;18.90;99.90
12726;DHT22;6427;49.754;6.106;2022-10-16T16:00:55;18.90;99.90
12726;DHT22;6427;49.754;6.106;2022-10-16T16:03:22;18.90;99.90
12726;DHT22;6427;49.754;6.106;2022-10-16T16:05:51;18.90;99.90
12726;DHT22;6427;49.754;6.106;2022-10-16T16:08:18;18.90;99.90
12726;DHT22;6427;49.754;6.106;2022-10-16T16:10:56;18.90;99.90
12726;DHT22;6427;49.754;6.106;2022-10-16T16:13:14;18.80;99.90
12726;DHT22;6427;49.754;6.106;2022-10-16T16:15:42;18.80;99.90
12726;DHT22;6427;49.754;6.106;2022-10-16T16:18:10;18.70;99.90
12726;DHT22;6427;49.754;6.106;2022-10-16T16:20:37;18.70;99.90
12726;DHT22;6427;49.754;6.106;2022-10-16T16:23:05;18.70;99.90
12726;DHT22;6427;49.754;6.106;2022-10-16T16:25:33;18.90;99.90
12726;DHT22;6427;49.754;6.106;2022-10-16T16:28:00;18.90;99.90
12726;DHT22;6427;49.754;6.106;2022-10-16T16:30:28;18.90;99.90
12726;DHT22;6427;49.754;6.106;2022-10-16T16:32:55;18.90;99.90
12726;DHT22;6427;49.754;6.106;2022-10-16T16:35:23;18.80;99.90
12726;DHT22;6427;49.754;6.106;2022-10-16T16:37:50;19.00;99.90
12726;DHT22;6427;49.754;6.106;2022-10-16T16:40:18;19.00;99.90
12726;DHT22;6427;49.754;6.106;2022-10-16T16:42:47;18.90;99.90
12726;DHT22;6427;49.754;6.106;2022-10-16T16:45:13;18.90;99.90
12726;DHT22;6427;49.754;6.106;2022-10-16T16:47:41;18.80;99.90
12726;DHT22;6427;49.754;6.106;2022-10-16T16:50:09;18.80;99.90
12726;DHT22;6427;49.754;6.106;2022-10-16T16:52:36;18.70;99.90
12726;DHT22;6427;49.754;6.106;2022-10-16T16:55:04;18.60;99.90
12726;DHT22;6427;49.754;6.106;2022-10-16T16:57:31;18.60;99.90
12726;DHT22;6427;49.754;6.106;2022-10-16T16:59:59;18.70;99.90
12726;DHT22;6427;49.754;6.106;2022-10-16T17:02:26;18.60;99.90
12726;DHT22;6427;49.754;6.106;2022-10-16T17:04:54;18.60;99.90
12726;DHT22;6427;49.754;6.106;2022-10-16T17:07:22;18.40;99.90
12726;DHT22;6427;49.754;6.106;2022-10-16T17:09:50;18.40;99.90
12726;DHT22;6427;49.754;6.106;2022-10-16T17:12:17;18.30;99.90
12726;DHT22;6427;49.754;6.106;2022-10-16T17:14:46;18.20;99.90
12726;DHT22;6427;49.754;6.106;2022-10-16T17:17:13;18.20;99.90
12726;DHT22;6427;49.754;6.106;2022-10-16T17:19:41;18.10;99.90
12726;DHT22;6427;49.754;6.106;2022-10-16T17:22:08;18.10;99.90
12726;DHT22;6427;49.754;6.106;2022-10-16T17:24:36;18.10;99.90
12726;DHT22;6427;49.754;6.106;2022-10-16T17:27:04;17.90;99.90
12726;DHT22;6427;49.754;6.106;2022-10-16T17:29:32;17.90;99.90
12726;DHT22;6427;49.754;6.106;2022-10-16T17:31:59;17.90;99.90